createdAt,value
2023-01-06T00:00:53.612Z,1.73
2023-01-06T00:01:56.378Z,1.40
2023-01-06T00:02:59.063Z,1.90
2023-01-06T00:04:03.460Z,2.15
2023-01-06T00:05:07.041Z,1.77
2023-01-06T00:06:11.335Z,1.60
2023-01-06T00:07:17.875Z,1.90
2023-01-06T00:08:20.905Z,1.27
2023-01-06T00:09:24.909Z,1.45
2023-01-06T00:10:27.786Z,1.40
2023-01-06T00:11:31.482Z,1.42
2023-01-06T00:12:34.492Z,1.35
2023-01-06T00:13:37.696Z,1.90
2023-01-06T00:14:42.825Z,1.33
2023-01-06T00:15:45.641Z,1.30
2023-01-06T00:16:48.538Z,1.70
2023-01-06T00:17:51.579Z,1.10
2023-01-06T00:18:56.492Z,1.10
2023-01-06T00:19:59.312Z,0.90
2023-01-06T00:21:03.442Z,1.40
2023-01-06T00:22:06.470Z,1.60
2023-01-06T00:23:09.238Z,1.23
2023-01-06T00:24:12.127Z,0.90
2023-01-06T00:25:14.988Z,1.30
2023-01-06T00:26:18.154Z,0.90
2023-01-06T00:27:20.987Z,1.00
2023-01-06T00:28:23.786Z,0.90
2023-01-06T00:29:26.976Z,0.90
2023-01-06T00:30:29.701Z,1.00
2023-01-06T00:31:32.694Z,0.95
2023-01-06T00:32:35.807Z,0.73
2023-01-06T00:33:38.989Z,0.90
2023-01-06T00:34:41.818Z,1.02
2023-01-06T00:35:44.776Z,0.68
2023-01-06T00:36:47.492Z,0.65
2023-01-06T00:37:50.227Z,0.85
2023-01-06T00:38:53.273Z,1.20
2023-01-06T00:39:56.141Z,1.15
2023-01-06T00:40:58.979Z,1.00
2023-01-06T00:42:04.624Z,1.10
2023-01-06T00:43:07.463Z,1.05
2023-01-06T00:44:10.251Z,1.20
2023-01-06T00:45:13.177Z,1.27
2023-01-06T00:46:16.034Z,1.15
2023-01-06T00:47:19.846Z,1.02
2023-01-06T00:48:22.696Z,1.10
2023-01-06T00:49:26.268Z,0.95
2023-01-06T00:50:29.319Z,1.00
2023-01-06T00:51:33.027Z,1.00
2023-01-06T00:52:36.210Z,1.05
2023-01-06T00:53:39.110Z,0.95
2023-01-06T00:54:43.220Z,0.80
2023-01-06T00:55:46.225Z,1.05
2023-01-06T00:56:51.625Z,0.98
2023-01-06T00:57:54.445Z,1.08
2023-01-06T00:58:57.348Z,1.25
2023-01-06T01:00:00.277Z,0.93
2023-01-06T01:01:07.970Z,1.00
2023-01-06T01:02:11.152Z,0.93
2023-01-06T01:03:14.324Z,0.90
2023-01-06T01:04:17.860Z,1.10
2023-01-06T01:05:20.796Z,1.20
2023-01-06T01:06:23.747Z,0.90
2023-01-06T01:07:26.600Z,1.37
2023-01-06T01:08:30.908Z,1.20
2023-01-06T01:09:34.092Z,1.10
2023-01-06T01:10:37.107Z,1.23
2023-01-06T01:11:59.032Z,0.90
2023-01-06T01:13:01.773Z,1.40
2023-01-06T01:14:04.668Z,1.10
2023-01-06T01:15:07.990Z,1.00
2023-01-06T01:16:11.032Z,1.23
2023-01-06T01:17:20.142Z,0.80
2023-01-06T01:18:23.188Z,0.75
2023-01-06T01:19:27.501Z,0.93
2023-01-06T01:20:30.423Z,1.00
2023-01-06T01:21:33.520Z,0.93
2023-01-06T01:22:36.454Z,1.00
2023-01-06T01:23:39.338Z,0.82
2023-01-06T01:24:42.103Z,0.77
2023-01-06T01:25:44.898Z,1.15
2023-01-06T01:26:47.983Z,0.82
2023-01-06T01:27:53.725Z,1.05
2023-01-06T01:28:56.504Z,0.90
2023-01-06T01:29:59.332Z,0.80
2023-01-06T01:31:03.693Z,0.90
2023-01-06T01:32:06.956Z,0.80
2023-01-06T01:33:09.818Z,0.60
2023-01-06T01:34:14.783Z,1.08
2023-01-06T01:35:17.550Z,0.90
2023-01-06T01:36:20.583Z,0.90
2023-01-06T01:37:23.542Z,0.85
2023-01-06T01:38:27.104Z,0.90
2023-01-06T01:39:30.889Z,0.90
2023-01-06T01:40:33.741Z,1.10
2023-01-06T01:41:36.695Z,0.90
2023-01-06T01:42:39.417Z,0.82
2023-01-06T01:43:56.118Z,1.10
2023-01-06T01:45:05.998Z,0.90
2023-01-06T01:46:08.928Z,1.10
2023-01-06T01:47:13.871Z,0.70
2023-01-06T01:48:31.584Z,0.82
2023-01-06T01:49:37.723Z,1.00
2023-01-06T01:50:45.926Z,1.08
2023-01-06T01:51:51.097Z,0.95
2023-01-06T01:52:59.065Z,1.17
2023-01-06T01:54:07.324Z,0.93
2023-01-06T01:55:11.401Z,1.00
2023-01-06T01:56:21.439Z,1.40
2023-01-06T01:57:34.417Z,0.95
2023-01-06T01:58:43.558Z,1.12
2023-01-06T01:59:47.136Z,0.90
2023-01-06T02:00:51.733Z,0.82
2023-01-06T02:01:58.869Z,1.05
2023-01-06T02:03:03.028Z,0.95
2023-01-06T02:04:07.746Z,1.15
2023-01-06T02:05:14.400Z,1.00
2023-01-06T02:06:21.601Z,1.10
2023-01-06T02:07:27.162Z,0.70
2023-01-06T02:08:36.635Z,0.98
2023-01-06T02:09:58.231Z,0.90
2023-01-06T02:11:01.687Z,0.90
2023-01-06T02:12:05.282Z,1.10
2023-01-06T02:13:11.761Z,0.90
2023-01-06T02:14:18.066Z,1.08
2023-01-06T02:15:27.468Z,0.90
2023-01-06T02:16:47.137Z,0.80
2023-01-06T02:18:03.416Z,1.15
2023-01-06T02:19:27.454Z,1.10
2023-01-06T02:20:48.942Z,0.93
2023-01-06T02:22:19.267Z,0.98
2023-01-06T02:23:40.228Z,0.88
2023-01-06T02:25:07.859Z,1.20
2023-01-06T02:26:22.896Z,1.00
2023-01-06T02:27:51.974Z,1.00
2023-01-06T02:29:32.022Z,0.80
2023-01-06T02:30:40.593Z,1.17
2023-01-06T02:32:06.819Z,0.75
2023-01-06T02:33:46.928Z,1.00
2023-01-06T02:35:13.352Z,1.05
2023-01-06T02:36:31.704Z,0.82
2023-01-06T02:37:48.646Z,1.00
2023-01-06T02:39:06.243Z,1.00
2023-01-06T02:40:18.081Z,1.00
2023-01-06T02:41:32.402Z,0.95
2023-01-06T02:42:44.761Z,1.10
2023-01-06T02:44:13.652Z,1.00
2023-01-06T02:45:28.082Z,1.00
2023-01-06T02:46:39.740Z,0.90
2023-01-06T02:49:29.001Z,1.10
2023-01-06T02:50:37.300Z,1.30
2023-01-06T02:52:09.429Z,0.80
2023-01-06T02:53:21.547Z,0.70
2023-01-06T02:54:40.480Z,0.90
2023-01-06T02:55:52.797Z,0.90
2023-01-06T02:57:24.939Z,0.85
2023-01-06T02:58:44.780Z,0.80
2023-01-06T03:00:05.462Z,0.90
2023-01-06T03:01:14.104Z,0.95
2023-01-06T03:02:19.499Z,0.62
2023-01-06T03:03:24.977Z,0.80
2023-01-06T03:04:36.880Z,0.88
2023-01-06T03:05:44.052Z,1.00
2023-01-06T03:06:50.871Z,0.85
2023-01-06T03:07:55.387Z,0.90
2023-01-06T03:08:59.577Z,0.75
2023-01-06T03:10:03.941Z,0.70
2023-01-06T03:11:06.975Z,0.90
2023-01-06T03:12:21.225Z,0.70
2023-01-06T03:13:35.876Z,0.88
2023-01-06T03:14:45.021Z,0.77
2023-01-06T03:15:47.930Z,0.70
2023-01-06T03:16:50.975Z,1.08
2023-01-06T03:17:54.017Z,0.57
2023-01-06T03:18:57.726Z,0.68
2023-01-06T03:20:01.230Z,0.90
2023-01-06T03:21:12.380Z,0.70
2023-01-06T03:22:17.493Z,0.90
2023-01-06T03:23:21.040Z,0.80
2023-01-06T03:24:24.238Z,0.80
2023-01-06T03:25:27.233Z,0.93
2023-01-06T03:26:30.413Z,0.70
2023-01-06T03:27:33.460Z,1.02
2023-01-06T03:28:36.305Z,0.95
2023-01-06T03:29:40.332Z,0.80
2023-01-06T03:30:50.664Z,0.88
2023-01-06T03:32:01.031Z,0.80
2023-01-06T03:33:34.121Z,0.90
2023-01-06T03:34:53.111Z,0.75
2023-01-06T03:36:28.375Z,0.80
2023-01-06T03:37:44.698Z,0.80
2023-01-06T03:38:58.351Z,0.70
2023-01-06T03:40:35.861Z,0.70
2023-01-06T03:42:02.750Z,1.08
2023-01-06T03:43:20.827Z,0.98
2023-01-06T03:44:31.383Z,1.00
2023-01-06T03:45:56.560Z,1.10
2023-01-06T03:47:15.415Z,0.90
2023-01-06T03:48:49.548Z,0.88
2023-01-06T03:50:10.259Z,0.90
2023-01-06T03:51:46.727Z,0.77
2023-01-06T03:52:59.326Z,0.85
2023-01-06T03:54:07.032Z,0.80
2023-01-06T03:55:16.733Z,0.80
2023-01-06T03:56:25.812Z,1.17
2023-01-06T03:57:34.140Z,1.12
2023-01-06T03:58:39.224Z,0.93
2023-01-06T04:00:04.362Z,0.93
2023-01-06T04:01:09.344Z,0.80
2023-01-06T04:02:13.311Z,1.00
2023-01-06T04:03:16.908Z,0.95
2023-01-06T04:04:20.068Z,1.20
2023-01-06T04:05:28.056Z,0.93
2023-01-06T04:06:31.081Z,0.80
2023-01-06T04:07:34.007Z,0.90
2023-01-06T04:08:36.862Z,1.00
2023-01-06T04:09:39.654Z,1.00
2023-01-06T04:10:42.639Z,1.00
2023-01-06T04:12:04.119Z,1.02
2023-01-06T04:13:07.340Z,0.62
2023-01-06T04:14:10.335Z,0.70
2023-01-06T04:15:19.293Z,1.00
2023-01-06T04:16:22.589Z,0.98
2023-01-06T04:17:25.470Z,0.80
2023-01-06T04:18:28.580Z,0.82
2023-01-06T04:19:31.586Z,0.77
2023-01-06T04:20:34.576Z,1.42
2023-01-06T04:21:37.593Z,0.80
2023-01-06T04:22:41.195Z,1.10
2023-01-06T04:23:44.084Z,1.00
2023-01-06T04:24:46.906Z,0.80
2023-01-06T04:25:49.661Z,0.80
2023-01-06T04:26:52.554Z,0.80
2023-01-06T04:27:55.526Z,0.90
2023-01-06T04:28:58.393Z,1.02
2023-01-06T04:30:01.094Z,1.08
2023-01-06T04:31:04.010Z,0.80
2023-01-06T04:32:06.701Z,0.80
2023-01-06T04:33:09.507Z,1.08
2023-01-06T04:34:12.177Z,1.00
2023-01-06T04:35:14.974Z,1.20
2023-01-06T04:36:18.792Z,0.95
2023-01-06T04:37:21.646Z,0.85
2023-01-06T04:38:24.372Z,0.75
2023-01-06T04:39:27.050Z,0.68
2023-01-06T04:40:29.771Z,1.10
2023-01-06T04:41:32.516Z,0.90
2023-01-06T04:42:55.454Z,0.95
2023-01-06T04:43:58.331Z,0.95
2023-01-06T04:45:01.179Z,0.55
2023-01-06T04:46:04.678Z,1.08
2023-01-06T04:47:07.989Z,0.90
2023-01-06T04:48:11.982Z,0.90
2023-01-06T04:49:15.171Z,0.77
2023-01-06T04:50:18.021Z,0.82
2023-01-06T04:51:20.823Z,0.90
2023-01-06T04:52:26.791Z,1.00
2023-01-06T04:53:29.623Z,0.80
2023-01-06T04:54:32.363Z,0.82
2023-01-06T04:55:39.000Z,0.93
2023-01-06T04:56:42.058Z,1.05
2023-01-06T04:57:45.119Z,0.90
2023-01-06T04:58:48.061Z,0.77
2023-01-06T04:59:50.888Z,1.05
2023-01-06T05:01:00.276Z,1.10
2023-01-06T05:02:03.167Z,1.10
2023-01-06T05:03:05.970Z,1.02
2023-01-06T05:04:08.941Z,1.23
2023-01-06T05:05:12.569Z,1.48
2023-01-06T05:06:16.274Z,0.75
2023-01-06T05:07:19.217Z,0.95
2023-01-06T05:08:22.235Z,1.27
2023-01-06T05:09:25.183Z,1.05
2023-01-06T05:10:27.899Z,1.30
2023-01-06T05:11:30.689Z,0.90
2023-01-06T05:12:34.196Z,1.10
2023-01-06T05:13:37.108Z,0.90
2023-01-06T05:14:39.918Z,0.95
2023-01-06T05:15:42.748Z,1.15
2023-01-06T05:16:45.804Z,1.33
2023-01-06T05:17:48.736Z,0.98
2023-01-06T05:18:52.227Z,1.10
2023-01-06T05:19:55.036Z,1.50
2023-01-06T05:20:57.685Z,0.90
2023-01-06T05:22:00.538Z,0.85
2023-01-06T05:23:04.003Z,1.23
2023-01-06T05:24:07.016Z,0.93
2023-01-06T05:25:09.881Z,1.25
2023-01-06T05:26:19.103Z,0.90
2023-01-06T05:27:21.788Z,1.05
2023-01-06T05:28:24.827Z,1.10
2023-01-06T05:29:27.615Z,0.85
2023-01-06T05:30:30.658Z,1.30
2023-01-06T05:31:33.663Z,1.05
2023-01-06T05:32:36.463Z,0.93
2023-01-06T05:33:39.455Z,1.05
2023-01-06T05:34:42.390Z,1.10
2023-01-06T05:35:45.462Z,1.05
2023-01-06T05:36:48.546Z,1.02
2023-01-06T05:37:54.809Z,1.05
2023-01-06T05:38:57.866Z,0.90
2023-01-06T05:40:00.603Z,0.70
2023-01-06T05:41:03.726Z,1.10
2023-01-06T05:42:06.684Z,1.10
2023-01-06T05:43:09.530Z,1.17
2023-01-06T05:44:12.497Z,0.82
2023-01-06T05:45:15.342Z,0.80
2023-01-06T05:46:18.595Z,0.90
2023-01-06T05:47:21.625Z,1.20
2023-01-06T05:48:26.576Z,1.10
2023-01-06T05:49:29.412Z,0.85
2023-01-06T05:50:32.172Z,0.98
2023-01-06T05:51:35.138Z,0.93
2023-01-06T05:52:37.980Z,0.85
2023-01-06T05:53:42.560Z,1.12
2023-01-06T05:54:45.375Z,0.80
2023-01-06T05:55:48.159Z,0.90
2023-01-06T05:56:51.057Z,1.27
2023-01-06T05:57:53.964Z,0.98
2023-01-06T05:58:56.802Z,0.85
2023-01-06T05:59:59.635Z,1.00
2023-01-06T06:01:04.261Z,1.00
2023-01-06T06:02:07.416Z,0.90
2023-01-06T06:03:10.155Z,1.15
2023-01-06T06:04:13.734Z,1.23
2023-01-06T06:05:16.828Z,1.20
2023-01-06T06:06:21.429Z,1.10
2023-01-06T06:07:24.632Z,1.00
2023-01-06T06:08:29.203Z,1.05
2023-01-06T06:09:32.082Z,1.00
2023-01-06T06:10:34.843Z,1.20
2023-01-06T06:11:37.508Z,1.10
2023-01-06T06:12:40.356Z,1.30
2023-01-06T06:13:49.757Z,1.00
2023-01-06T06:14:52.659Z,1.10
2023-01-06T06:16:05.966Z,1.00
2023-01-06T06:17:09.257Z,1.70
2023-01-06T06:18:12.134Z,1.12
2023-01-06T06:19:15.303Z,1.00
2023-01-06T06:20:18.234Z,0.98
2023-01-06T06:21:23.731Z,1.02
2023-01-06T06:22:26.378Z,1.25
2023-01-06T06:23:30.118Z,1.10
2023-01-06T06:24:32.872Z,1.20
2023-01-06T06:25:35.753Z,1.30
2023-01-06T06:26:38.492Z,1.00
2023-01-06T06:27:41.201Z,1.35
2023-01-06T06:28:43.984Z,1.10
2023-01-06T06:29:47.304Z,1.37
2023-01-06T06:30:50.254Z,1.10
2023-01-06T06:31:53.073Z,1.20
2023-01-06T06:32:55.873Z,1.50
2023-01-06T06:34:02.420Z,1.50
2023-01-06T06:35:05.450Z,1.20
2023-01-06T06:36:16.177Z,1.20
2023-01-06T06:37:18.938Z,1.30
2023-01-06T06:38:21.718Z,1.10
2023-01-06T06:39:24.454Z,1.00
2023-01-06T06:40:30.936Z,1.33
2023-01-06T06:41:33.938Z,1.10
2023-01-06T06:42:36.779Z,0.80
2023-01-06T06:43:40.056Z,1.35
2023-01-06T06:44:42.884Z,0.98
2023-01-06T06:45:46.728Z,1.10
2023-01-06T06:46:53.011Z,1.20
2023-01-06T06:47:55.765Z,0.80
2023-01-06T06:49:01.897Z,1.20
2023-01-06T06:50:05.432Z,1.27
2023-01-06T06:51:15.000Z,1.08
2023-01-06T06:52:17.795Z,1.02
2023-01-06T06:53:20.602Z,1.40
2023-01-06T06:54:23.319Z,1.20
2023-01-06T06:55:26.049Z,1.30
2023-01-06T06:56:28.927Z,1.20
2023-01-06T06:57:31.660Z,1.30
2023-01-06T06:58:36.114Z,1.00
2023-01-06T06:59:38.856Z,0.95
2023-01-06T07:00:41.529Z,1.02
2023-01-06T07:01:44.683Z,1.10
2023-01-06T07:02:51.078Z,1.35
2023-01-06T07:03:53.769Z,1.27
2023-01-06T07:04:56.510Z,1.30
2023-01-06T07:05:59.889Z,1.23
2023-01-06T07:07:02.607Z,1.42
2023-01-06T07:08:05.741Z,1.37
2023-01-06T07:09:08.534Z,1.42
2023-01-06T07:10:15.709Z,1.05
2023-01-06T07:11:19.003Z,1.33
2023-01-06T07:12:21.700Z,0.90
2023-01-06T07:13:24.513Z,1.20
2023-01-06T07:14:27.560Z,1.55
2023-01-06T07:15:30.402Z,1.67
2023-01-06T07:16:33.518Z,2.03
2023-01-06T07:17:36.381Z,2.78
2023-01-06T07:18:39.614Z,5.72
2023-01-06T07:19:42.311Z,5.07
2023-01-06T07:20:53.864Z,3.12
2023-01-06T07:21:57.134Z,2.58
2023-01-06T07:23:00.079Z,2.45
2023-01-06T07:24:02.931Z,2.47
2023-01-06T07:25:09.635Z,2.12
2023-01-06T07:26:12.334Z,2.65
2023-01-06T07:27:15.244Z,1.62
2023-01-06T07:28:18.277Z,2.12
2023-01-06T07:29:21.012Z,1.95
2023-01-06T07:30:24.932Z,1.90
2023-01-06T07:31:28.067Z,1.92
2023-01-06T07:32:31.027Z,1.75
2023-01-06T07:33:33.814Z,1.70
2023-01-06T07:34:36.538Z,1.65
2023-01-06T07:35:39.548Z,1.92
2023-01-06T07:36:42.271Z,1.67
2023-01-06T07:37:45.712Z,1.80
2023-01-06T07:38:48.589Z,1.70
2023-01-06T07:39:52.381Z,1.83
2023-01-06T07:41:00.536Z,1.77
2023-01-06T07:42:03.635Z,1.58
2023-01-06T07:43:11.483Z,1.58
2023-01-06T07:44:17.871Z,1.52
2023-01-06T07:45:21.138Z,1.40
2023-01-06T07:46:23.913Z,1.40
2023-01-06T07:47:26.900Z,1.30
2023-01-06T07:48:29.721Z,1.52
2023-01-06T07:49:32.740Z,1.60
2023-01-06T07:50:35.689Z,1.90
2023-01-06T07:51:38.659Z,1.40
2023-01-06T07:52:41.496Z,1.40
2023-01-06T07:53:44.424Z,1.50
2023-01-06T07:54:47.204Z,1.73
2023-01-06T07:55:54.338Z,1.25
2023-01-06T07:56:57.191Z,1.55
2023-01-06T07:58:04.670Z,1.58
2023-01-06T07:59:07.584Z,1.50
2023-01-06T08:00:11.351Z,1.33
2023-01-06T08:01:14.539Z,1.80
2023-01-06T08:02:17.375Z,1.50
2023-01-06T08:03:20.588Z,1.70
2023-01-06T08:04:23.423Z,2.03
2023-01-06T08:05:26.429Z,1.52
2023-01-06T08:06:29.436Z,1.83
2023-01-06T08:07:32.302Z,1.85
2023-01-06T08:08:39.794Z,1.35
2023-01-06T08:09:42.584Z,1.40
2023-01-06T08:10:45.275Z,1.60
2023-01-06T08:11:48.057Z,1.27
2023-01-06T08:12:50.808Z,1.52
2023-01-06T08:13:53.643Z,1.35
2023-01-06T08:14:56.404Z,1.48
2023-01-06T08:15:59.185Z,1.40
2023-01-06T08:17:01.982Z,1.58
2023-01-06T08:18:04.969Z,1.23
2023-01-06T08:19:08.071Z,1.10
2023-01-06T08:20:10.976Z,1.50
2023-01-06T08:21:13.725Z,0.90
2023-01-06T08:22:16.381Z,1.20
2023-01-06T08:23:19.065Z,0.90
2023-01-06T08:24:21.751Z,1.37
2023-01-06T08:25:24.424Z,1.10
2023-01-06T08:26:27.378Z,1.00
2023-01-06T08:27:30.286Z,1.20
2023-01-06T08:28:33.351Z,0.98
2023-01-06T08:29:37.129Z,1.20
2023-01-06T08:30:41.911Z,0.95
2023-01-06T08:31:44.976Z,0.90
2023-01-06T08:32:50.692Z,0.88
2023-01-06T08:33:53.807Z,0.90
2023-01-06T08:35:00.117Z,1.00
2023-01-06T08:36:07.151Z,0.90
2023-01-06T08:37:10.094Z,1.08
2023-01-06T08:38:12.868Z,1.00
2023-01-06T08:39:16.677Z,1.00
2023-01-06T08:40:19.724Z,1.12
2023-01-06T08:41:22.937Z,1.00
2023-01-06T08:42:25.713Z,1.20
2023-01-06T08:43:32.955Z,0.88
2023-01-06T08:44:35.975Z,0.93
2023-01-06T08:45:40.073Z,1.05
2023-01-06T08:46:43.087Z,1.02
2023-01-06T08:47:45.946Z,1.10
2023-01-06T08:48:49.316Z,1.00
2023-01-06T08:49:52.061Z,1.15
2023-01-06T08:50:55.160Z,1.25
2023-01-06T08:51:57.958Z,1.25
2023-01-06T08:53:01.620Z,1.00
2023-01-06T08:54:04.362Z,1.05
2023-01-06T08:55:07.259Z,0.98
2023-01-06T08:56:19.620Z,1.27
2023-01-06T08:57:22.657Z,1.00
2023-01-06T08:58:25.833Z,1.10
2023-01-06T08:59:29.105Z,0.93
2023-01-06T09:00:32.018Z,1.62
2023-01-06T09:01:36.644Z,1.52
2023-01-06T09:02:39.344Z,0.82
2023-01-06T09:03:42.138Z,0.88
2023-01-06T09:04:44.877Z,1.02
2023-01-06T09:05:56.569Z,1.10
2023-01-06T09:06:59.519Z,1.30
2023-01-06T09:08:02.444Z,1.20
2023-01-06T09:09:06.817Z,1.30
2023-01-06T09:10:10.045Z,1.23
2023-01-06T09:11:13.121Z,1.45
2023-01-06T09:12:16.083Z,1.42
2023-01-06T09:13:19.024Z,1.20
2023-01-06T09:14:21.986Z,1.50
2023-01-06T09:15:24.826Z,1.08
2023-01-06T09:16:27.913Z,0.90
2023-01-06T09:17:31.057Z,1.30
2023-01-06T09:18:33.935Z,1.15
2023-01-06T09:19:36.806Z,1.17
2023-01-06T09:20:39.733Z,1.20
2023-01-06T09:21:43.171Z,1.30
2023-01-06T09:22:46.305Z,1.58
2023-01-06T09:23:49.701Z,1.58
2023-01-06T09:24:52.429Z,1.40
2023-01-06T09:25:57.871Z,1.48
2023-01-06T09:27:00.789Z,1.20
2023-01-06T09:28:03.751Z,1.33
2023-01-06T09:29:06.495Z,1.15
2023-01-06T09:30:09.818Z,1.10
2023-01-06T09:31:12.646Z,1.23
2023-01-06T09:32:15.713Z,1.40
2023-01-06T09:33:18.916Z,1.60
2023-01-06T09:34:21.817Z,1.48
2023-01-06T09:35:24.851Z,1.20
2023-01-06T09:36:28.371Z,1.87
2023-01-06T09:37:31.445Z,1.50
2023-01-06T09:38:34.276Z,1.45
2023-01-06T09:39:37.514Z,2.00
2023-01-06T09:41:08.141Z,1.37
2023-01-06T09:42:40.175Z,1.40
2023-01-06T09:43:42.800Z,1.30
2023-01-06T09:45:16.829Z,1.20
2023-01-06T09:46:26.638Z,1.37
2023-01-06T09:47:45.284Z,1.10
2023-01-06T09:49:01.917Z,1.52
2023-01-06T09:50:22.581Z,1.35
2023-01-06T09:51:29.058Z,1.80
2023-01-06T09:52:46.736Z,1.65
2023-01-06T09:54:10.269Z,1.48
2023-01-06T09:55:37.374Z,1.23
2023-01-06T09:56:44.396Z,1.58
2023-01-06T09:58:00.920Z,1.33
2023-01-06T09:59:19.055Z,1.30
2023-01-06T10:00:43.345Z,1.20
2023-01-06T10:01:49.374Z,1.12
2023-01-06T10:02:53.019Z,1.40
2023-01-06T10:03:57.860Z,1.27
2023-01-06T10:05:01.198Z,1.10
2023-01-06T10:06:19.142Z,1.25
2023-01-06T10:07:41.658Z,1.30
2023-01-06T10:08:50.413Z,1.42
2023-01-06T10:10:05.385Z,1.40
2023-01-06T10:11:40.111Z,1.17
2023-01-06T10:13:15.826Z,1.40
2023-01-06T10:14:41.787Z,1.20
2023-01-06T10:15:54.665Z,1.25
2023-01-06T10:17:21.437Z,1.30
2023-01-06T10:18:29.773Z,1.42
2023-01-06T10:19:53.353Z,1.40
2023-01-06T10:21:28.194Z,1.65
2023-01-06T10:22:52.557Z,1.35
2023-01-06T10:23:58.385Z,1.73
2023-01-06T10:25:12.826Z,1.33
2023-01-06T10:26:33.110Z,1.23
2023-01-06T10:27:39.632Z,1.20
2023-01-06T10:28:43.295Z,1.20
2023-01-06T10:29:49.156Z,1.52
2023-01-06T10:30:55.636Z,1.35
2023-01-06T10:32:01.871Z,1.90
2023-01-06T10:33:05.737Z,1.40
2023-01-06T10:34:18.037Z,1.30
2023-01-06T10:35:25.122Z,1.60
2023-01-06T10:36:41.414Z,1.60
2023-01-06T10:37:49.471Z,1.42
2023-01-06T10:38:53.671Z,1.52
2023-01-06T10:40:03.430Z,1.30
2023-01-06T10:41:33.889Z,1.37
2023-01-06T10:42:56.336Z,1.50
2023-01-06T10:43:59.194Z,1.42
2023-01-06T10:45:02.124Z,1.50
2023-01-06T10:46:05.630Z,1.50
2023-01-06T10:47:18.371Z,1.50
2023-01-06T10:48:27.510Z,1.27
2023-01-06T10:49:30.926Z,1.55
2023-01-06T10:50:35.065Z,1.33
2023-01-06T10:51:45.755Z,1.40
2023-01-06T10:52:49.585Z,1.77
2023-01-06T10:53:52.706Z,1.50
2023-01-06T10:55:00.556Z,1.50
2023-01-06T10:56:04.484Z,1.62
2023-01-06T10:57:16.178Z,1.20
2023-01-06T10:59:33.016Z,1.90
2023-01-06T11:00:36.001Z,1.05
2023-01-06T11:01:53.476Z,1.27
2023-01-06T11:03:19.636Z,1.50
2023-01-06T11:04:28.317Z,1.23
2023-01-06T11:05:33.696Z,1.42
2023-01-06T11:06:39.021Z,1.55
2023-01-06T11:08:03.200Z,1.48
2023-01-06T11:09:26.345Z,1.42
2023-01-06T11:10:38.924Z,1.37
2023-01-06T11:11:49.484Z,1.12
2023-01-06T11:12:52.568Z,1.27
2023-01-06T11:14:03.756Z,1.45
2023-01-06T11:15:08.294Z,1.40
2023-01-06T11:16:37.391Z,1.77
2023-01-06T11:17:40.242Z,1.30
2023-01-06T11:18:43.248Z,1.20
2023-01-06T11:19:47.989Z,1.45
2023-01-06T11:21:07.301Z,1.45
2023-01-06T11:22:33.794Z,1.37
2023-01-06T11:23:39.922Z,1.10
2023-01-06T11:24:54.562Z,1.48
2023-01-06T11:26:16.607Z,1.67
2023-01-06T11:27:19.610Z,1.40
2023-01-06T11:28:22.284Z,1.30
2023-01-06T11:29:35.851Z,1.62
2023-01-06T11:30:48.651Z,1.62
2023-01-06T11:31:51.834Z,1.40
2023-01-06T11:32:56.049Z,1.50
2023-01-06T11:34:04.246Z,1.80
2023-01-06T11:35:09.112Z,1.62
2023-01-06T11:36:14.540Z,1.73
2023-01-06T11:37:31.084Z,1.45
2023-01-06T11:38:43.032Z,1.80
2023-01-06T11:39:49.116Z,1.70
2023-01-06T11:40:54.996Z,1.67
2023-01-06T11:42:05.324Z,1.50
2023-01-06T11:43:19.002Z,1.35
2023-01-06T11:44:36.657Z,1.33
2023-01-06T11:45:55.026Z,1.73
2023-01-06T11:47:08.845Z,1.73
2023-01-06T11:48:26.402Z,1.85
2023-01-06T11:49:35.131Z,1.58
2023-01-06T11:50:39.479Z,1.55
2023-01-06T11:51:42.242Z,1.67
2023-01-06T11:53:06.460Z,1.52
2023-01-06T11:54:32.308Z,1.40
2023-01-06T11:55:35.025Z,1.50
2023-01-06T11:56:37.882Z,2.03
2023-01-06T11:57:54.601Z,1.67
2023-01-06T11:59:08.423Z,1.40
2023-01-06T12:00:43.132Z,1.80
2023-01-06T12:01:55.395Z,1.50
2023-01-06T12:03:17.033Z,1.55
2023-01-06T12:04:39.411Z,1.52
2023-01-06T12:06:13.193Z,1.30
2023-01-06T12:07:32.271Z,1.52
2023-01-06T12:09:45.761Z,1.20
2023-01-06T12:11:05.684Z,1.10
2023-01-06T12:12:13.242Z,1.45
2023-01-06T12:13:16.209Z,1.23
2023-01-06T12:14:29.456Z,1.35
2023-01-06T12:15:35.680Z,1.40
2023-01-06T12:16:46.982Z,1.55
2023-01-06T12:17:52.017Z,1.17
2023-01-06T12:18:55.204Z,1.45
2023-01-06T12:20:18.893Z,1.50
2023-01-06T12:21:29.709Z,1.60
2023-01-06T12:22:41.217Z,1.12
2023-01-06T12:23:46.307Z,1.23
2023-01-06T12:24:52.769Z,1.30
2023-01-06T12:26:00.758Z,1.27
2023-01-06T12:27:06.638Z,1.00
2023-01-06T12:28:30.050Z,1.33
2023-01-06T12:29:33.907Z,1.00
2023-01-06T12:30:53.810Z,1.25
2023-01-06T12:32:06.081Z,1.37
2023-01-06T12:33:20.939Z,1.33
2023-01-06T12:34:27.489Z,1.02
2023-01-06T12:35:34.430Z,1.10
2023-01-06T12:37:11.179Z,1.10
2023-01-06T12:38:31.180Z,1.20
2023-01-06T12:39:46.040Z,1.20
2023-01-06T12:41:05.653Z,1.40
2023-01-06T12:42:26.432Z,1.30
2023-01-06T12:43:33.991Z,1.20
2023-01-06T12:44:46.552Z,1.27
2023-01-06T12:46:07.177Z,1.30
2023-01-06T12:47:16.989Z,1.40
2023-01-06T12:48:50.896Z,1.23
2023-01-06T12:50:15.410Z,1.27
2023-01-06T12:51:41.547Z,1.10
2023-01-06T12:52:49.755Z,1.08
2023-01-06T12:53:59.592Z,1.20
2023-01-06T12:55:03.143Z,1.30
2023-01-06T12:56:32.068Z,1.52
2023-01-06T12:58:07.113Z,1.20
2023-01-06T12:59:19.557Z,1.30
2023-01-06T13:00:32.489Z,1.20
2023-01-06T13:01:51.242Z,1.30
2023-01-06T13:03:18.346Z,1.35
2023-01-06T13:04:57.429Z,0.90
2023-01-06T13:06:06.583Z,1.30
2023-01-06T13:07:32.250Z,1.10
2023-01-06T13:09:11.179Z,1.33
2023-01-06T13:10:34.115Z,1.20
2023-01-06T13:11:51.752Z,1.35
2023-01-06T13:13:10.084Z,1.20
2023-01-06T13:14:34.007Z,1.10
2023-01-06T13:15:40.926Z,0.88
2023-01-06T13:17:01.807Z,1.30
2023-01-06T13:18:29.359Z,1.12
2023-01-06T13:19:52.140Z,1.42
2023-01-06T13:21:04.101Z,1.50
2023-01-06T13:22:11.076Z,1.25
2023-01-06T13:23:20.016Z,0.90
2023-01-06T13:24:44.949Z,1.17
2023-01-06T13:26:09.606Z,1.12
2023-01-06T13:27:39.668Z,1.48
2023-01-06T13:29:23.859Z,1.17
2023-01-06T13:30:34.448Z,1.42
2023-01-06T13:32:08.435Z,1.10
2023-01-06T13:33:36.401Z,1.15
2023-01-06T13:35:06.187Z,1.08
2023-01-06T13:36:31.789Z,1.15
2023-01-06T13:37:37.744Z,2.08
2023-01-06T13:39:18.807Z,1.52
2023-01-06T13:40:30.085Z,1.10
2023-01-06T13:41:39.457Z,0.95
2023-01-06T13:42:49.938Z,1.10
2023-01-06T13:43:57.433Z,1.20
2023-01-06T13:45:00.393Z,1.27
2023-01-06T13:46:09.939Z,1.12
2023-01-06T13:47:16.957Z,1.10
2023-01-06T13:48:29.151Z,1.15
2023-01-06T13:49:32.625Z,1.12
2023-01-06T13:50:39.683Z,1.35
2023-01-06T13:51:44.631Z,1.45
2023-01-06T13:52:48.875Z,1.27
2023-01-06T13:53:54.862Z,1.42
2023-01-06T13:55:23.669Z,1.42
2023-01-06T13:56:39.589Z,1.30
2023-01-06T13:57:43.105Z,1.12
2023-01-06T13:58:51.126Z,1.30
2023-01-06T14:00:14.722Z,1.17
2023-01-06T14:01:20.233Z,1.25
2023-01-06T14:02:46.453Z,1.25
2023-01-06T14:03:51.568Z,1.10
2023-01-06T14:04:54.445Z,1.77
2023-01-06T14:05:58.593Z,1.20
2023-01-06T14:07:01.436Z,1.55
2023-01-06T14:08:17.848Z,1.60
2023-01-06T14:09:21.552Z,1.80
2023-01-06T14:10:41.831Z,1.70
2023-01-06T14:11:45.483Z,1.40
2023-01-06T14:12:49.060Z,1.55
2023-01-06T14:13:58.368Z,1.70
2023-01-06T14:15:08.253Z,1.83
2023-01-06T14:16:14.308Z,2.20
2023-01-06T14:17:38.452Z,1.95
2023-01-06T14:18:43.265Z,1.95
2023-01-06T14:19:53.685Z,1.83
2023-01-06T14:21:03.776Z,2.17
2023-01-06T14:22:23.268Z,2.58
2023-01-06T14:23:26.299Z,2.30
2023-01-06T14:24:35.927Z,2.50
2023-01-06T14:25:41.664Z,2.20
2023-01-06T14:27:03.126Z,2.20
2023-01-06T14:28:22.449Z,2.35
2023-01-06T14:29:43.589Z,1.95
2023-01-06T14:30:48.530Z,2.10
2023-01-06T14:31:51.329Z,2.08
2023-01-06T14:32:53.973Z,1.90
2023-01-06T14:34:04.745Z,1.50
2023-01-06T14:35:14.285Z,1.73
2023-01-06T14:36:18.147Z,1.77
2023-01-06T14:37:28.966Z,2.00
2023-01-06T14:38:44.062Z,2.28
2023-01-06T14:39:53.634Z,2.10
2023-01-06T14:41:01.084Z,2.28
2023-01-06T14:42:10.035Z,2.33
2023-01-06T14:43:39.588Z,1.92
2023-01-06T14:44:52.379Z,1.65
2023-01-06T14:45:58.010Z,2.22
2023-01-06T14:47:11.385Z,2.40
2023-01-06T14:48:17.004Z,2.50
2023-01-06T14:49:31.919Z,3.87
2023-01-06T14:50:47.074Z,5.12
2023-01-06T14:51:54.937Z,5.25
2023-01-06T14:53:28.360Z,3.28
2023-01-06T14:54:37.698Z,3.22
2023-01-06T14:55:47.099Z,2.80
2023-01-06T14:56:58.071Z,2.30
2023-01-06T14:58:01.317Z,2.45
2023-01-06T14:59:06.523Z,2.45
2023-01-06T15:00:30.135Z,2.47
2023-01-06T15:01:36.437Z,2.08
2023-01-06T15:02:46.241Z,1.95
2023-01-06T15:04:01.660Z,1.50
2023-01-06T15:05:06.823Z,1.65
2023-01-06T15:06:19.611Z,1.50
2023-01-06T15:07:22.884Z,1.80
2023-01-06T15:08:26.308Z,1.65
2023-01-06T15:09:29.668Z,1.62
2023-01-06T15:10:52.655Z,1.40
2023-01-06T15:11:55.981Z,1.08
2023-01-06T15:12:59.053Z,1.37
2023-01-06T15:14:01.933Z,1.25